sensor_id;sensor_type;location;lat;lon;timestamp;pressure;altitude;pressure_sealevel;temperature;humidity
3096;BME280;1558;42.700;23.360;2023-06-22T00:01:33;95700.13;;;21.31;94.87
3096;BME280;1558;42.700;23.360;2023-06-22T00:06:29;95700.09;;;21.10;96.58
3096;BME280;1558;42.700;23.360;2023-06-22T00:08:57;95705.59;;;21.17;97.82
3096;BME280;1558;42.700;23.360;2023-06-22T00:11:25;95690.72;;;21.28;97.72
3096;BME280;1558;42.700;23.360;2023-06-22T00:13:55;95695.81;;;21.12;97.63
3096;BME280;1558;42.700;23.360;2023-06-22T00:16:24;95699.25;;;20.84;97.31
3096;BME280;1558;42.700;23.360;2023-06-22T00:18:52;95703.16;;;20.90;97.48
3096;BME280;1558;42.700;23.360;2023-06-22T00:21:20;95698.09;;;21.00;98.21
3096;BME280;1558;42.700;23.360;2023-06-22T00:23:48;95686.31;;;20.99;96.18
3096;BME280;1558;42.700;23.360;2023-06-22T00:26:16;95691.41;;;20.86;96.78
3096;BME280;1558;42.700;23.360;2023-06-22T00:28:44;95680.06;;;21.02;97.07
3096;BME280;1558;42.700;23.360;2023-06-22T00:31:14;95673.06;;;21.08;96.74
3096;BME280;1558;42.700;23.360;2023-06-22T00:33:42;95684.81;;;21.05;96.01
3096;BME280;1558;42.700;23.360;2023-06-22T00:36:10;95686.78;;;21.05;97.43
3096;BME280;1558;42.700;23.360;2023-06-22T00:38:40;95682.84;;;21.09;97.63
3096;BME280;1558;42.700;23.360;2023-06-22T00:41:08;95683.59;;;20.96;97.64
3096;BME280;1558;42.700;23.360;2023-06-22T00:43:36;95678.09;;;20.99;97.12
3096;BME280;1558;42.700;23.360;2023-06-22T00:46:04;95676.91;;;20.86;97.33
3096;BME280;1558;42.700;23.360;2023-06-22T00:48:34;95675.31;;;20.74;97.89
3096;BME280;1558;42.700;23.360;2023-06-22T00:51:03;95681.22;;;20.80;99.67
3096;BME280;1558;42.700;23.360;2023-06-22T00:53:32;95681.63;;;20.89;99.98
3096;BME280;1558;42.700;23.360;2023-06-22T00:56:02;95682.00;;;20.87;99.88
3096;BME280;1558;42.700;23.360;2023-06-22T00:58:30;95682.75;;;20.77;100.00
3096;BME280;1558;42.700;23.360;2023-06-22T01:00:58;95680.41;;;20.83;100.00
3096;BME280;1558;42.700;23.360;2023-06-22T01:03:27;95693.72;;;20.77;100.00
3096;BME280;1558;42.700;23.360;2023-06-22T01:06:02;95697.66;;;20.80;100.00
3096;BME280;1558;42.700;23.360;2023-06-22T01:08:41;95690.56;;;20.72;100.00
3096;BME280;1558;42.700;23.360;2023-06-22T01:11:14;95689.38;;;20.73;100.00
3096;BME280;1558;42.700;23.360;2023-06-22T01:13:50;95678.03;;;20.78;100.00
3096;BME280;1558;42.700;23.360;2023-06-22T01:16:24;95651.34;;;20.57;100.00
3096;BME280;1558;42.700;23.360;2023-06-22T01:18:55;95648.13;;;20.34;100.00
3096;BME280;1558;42.700;23.360;2023-06-22T01:21:28;95661.53;;;20.60;100.00
3096;BME280;1558;42.700;23.360;2023-06-22T01:24:10;95695.66;;;20.73;100.00
3096;BME280;1558;42.700;23.360;2023-06-22T01:26:46;95687.44;;;20.80;100.00
3096;BME280;1558;42.700;23.360;2023-06-22T01:29:24;95691.38;;;20.79;100.00
3096;BME280;1558;42.700;23.360;2023-06-22T01:31:56;95693.72;;;20.70;100.00
3096;BME280;1558;42.700;23.360;2023-06-22T01:34:25;95694.41;;;20.57;100.00
3096;BME280;1558;42.700;23.360;2023-06-22T01:36:54;95694.78;;;20.48;100.00
3096;BME280;1558;42.700;23.360;2023-06-22T01:39:22;95669.13;;;20.16;100.00
3096;BME280;1558;42.700;23.360;2023-06-22T01:41:51;95702.91;;;20.31;100.00
3096;BME280;1558;42.700;23.360;2023-06-22T01:44:22;95715.69;;;20.16;100.00
3096;BME280;1558;42.700;23.360;2023-06-22T01:46:52;95689.81;;;20.03;100.00
3096;BME280;1558;42.700;23.360;2023-06-22T01:49:21;95687.06;;;20.03;100.00
3096;BME280;1558;42.700;23.360;2023-06-22T01:51:49;95697.31;;;20.13;100.00
3096;BME280;1558;42.700;23.360;2023-06-22T01:54:19;95713.16;;;20.41;100.00
3096;BME280;1558;42.700;23.360;2023-06-22T01:56:48;95711.41;;;20.15;100.00
3096;BME280;1558;42.700;23.360;2023-06-22T01:59:20;95675.19;;;19.81;100.00
3096;BME280;1558;42.700;23.360;2023-06-22T02:02:02;95718.50;;;20.23;100.00
3096;BME280;1558;42.700;23.360;2023-06-22T02:04:36;95724.03;;;20.30;100.00
3096;BME280;1558;42.700;23.360;2023-06-22T02:07:09;95713.75;;;20.13;100.00
3096;BME280;1558;42.700;23.360;2023-06-22T02:09:42;95705.81;;;19.97;100.00
3096;BME280;1558;42.700;23.360;2023-06-22T02:12:12;95725.72;;;19.91;100.00
3096;BME280;1558;42.700;23.360;2023-06-22T02:14:41;95723.22;;;20.22;100.00
3096;BME280;1558;42.700;23.360;2023-06-22T02:17:11;95716.25;;;20.32;100.00
3096;BME280;1558;42.700;23.360;2023-06-22T02:19:41;95713.81;;;20.23;100.00
3096;BME280;1558;42.700;23.360;2023-06-22T02:22:09;95713.88;;;20.27;100.00
3096;BME280;1558;42.700;23.360;2023-06-22T02:24:39;95711.59;;;20.43;100.00
3096;BME280;1558;42.700;23.360;2023-06-22T02:27:07;95712.72;;;20.35;100.00
3096;BME280;1558;42.700;23.360;2023-06-22T02:29:36;95721.00;;;20.46;100.00
3096;BME280;1558;42.700;23.360;2023-06-22T02:32:04;95707.25;;;20.39;100.00
3096;BME280;1558;42.700;23.360;2023-06-22T02:34:34;95695.84;;;20.22;100.00
3096;BME280;1558;42.700;23.360;2023-06-22T02:37:03;95704.47;;;20.28;100.00
3096;BME280;1558;42.700;23.360;2023-06-22T02:39:32;95709.19;;;20.31;100.00
3096;BME280;1558;42.700;23.360;2023-06-22T02:42:00;95713.50;;;20.32;100.00
3096;BME280;1558;42.700;23.360;2023-06-22T02:44:28;95712.22;;;20.19;100.00
3096;BME280;1558;42.700;23.360;2023-06-22T02:46:56;95710.66;;;20.18;100.00
3096;BME280;1558;42.700;23.360;2023-06-22T02:49:24;95704.38;;;20.17;100.00
3096;BME280;1558;42.700;23.360;2023-06-22T02:51:54;95711.81;;;20.17;100.00
3096;BME280;1558;42.700;23.360;2023-06-22T02:54:23;95719.94;;;20.03;100.00
3096;BME280;1558;42.700;23.360;2023-06-22T02:56:51;95705.00;;;19.93;100.00
3096;BME280;1558;42.700;23.360;2023-06-22T02:59:19;95712.88;;;20.02;100.00
3096;BME280;1558;42.700;23.360;2023-06-22T03:01:50;95725.31;;;19.92;100.00
3096;BME280;1558;42.700;23.360;2023-06-22T03:04:19;95686.94;;;19.82;100.00
3096;BME280;1558;42.700;23.360;2023-06-22T03:06:48;95693.16;;;19.79;100.00
3096;BME280;1558;42.700;23.360;2023-06-22T03:09:20;95714.22;;;19.68;100.00
3096;BME280;1558;42.700;23.360;2023-06-22T03:11:48;95722.81;;;19.70;100.00
3096;BME280;1558;42.700;23.360;2023-06-22T03:14:16;95726.47;;;19.84;100.00
3096;BME280;1558;42.700;23.360;2023-06-22T03:16:44;95735.56;;;19.99;100.00
3096;BME280;1558;42.700;23.360;2023-06-22T03:19:12;95736.63;;;19.84;100.00
3096;BME280;1558;42.700;23.360;2023-06-22T03:21:40;95735.38;;;19.74;100.00
3096;BME280;1558;42.700;23.360;2023-06-22T03:24:08;95714.44;;;19.52;100.00
3096;BME280;1558;42.700;23.360;2023-06-22T03:26:38;95748.56;;;19.62;100.00
3096;BME280;1558;42.700;23.360;2023-06-22T03:29:06;95740.69;;;19.56;100.00
3096;BME280;1558;42.700;23.360;2023-06-22T03:31:34;95748.31;;;19.81;100.00
3096;BME280;1558;42.700;23.360;2023-06-22T03:34:02;95745.50;;;19.70;100.00
3096;BME280;1558;42.700;23.360;2023-06-22T03:36:30;95747.22;;;19.92;100.00
3096;BME280;1558;42.700;23.360;2023-06-22T03:38:58;95751.56;;;19.97;100.00
3096;BME280;1558;42.700;23.360;2023-06-22T03:41:26;95752.69;;;19.89;100.00
3096;BME280;1558;42.700;23.360;2023-06-22T03:43:56;95764.09;;;19.94;100.00
3096;BME280;1558;42.700;23.360;2023-06-22T03:46:24;95758.28;;;20.06;100.00
3096;BME280;1558;42.700;23.360;2023-06-22T03:48:52;95759.38;;;19.95;100.00
3096;BME280;1558;42.700;23.360;2023-06-22T03:51:20;95764.97;;;20.09;100.00
3096;BME280;1558;42.700;23.360;2023-06-22T03:53:48;95762.84;;;20.36;100.00
3096;BME280;1558;42.700;23.360;2023-06-22T03:56:17;95776.69;;;20.60;100.00
3096;BME280;1558;42.700;23.360;2023-06-22T03:58:47;95782.19;;;20.60;100.00
3096;BME280;1558;42.700;23.360;2023-06-22T04:01:16;95772.28;;;20.45;100.00
3096;BME280;1558;42.700;23.360;2023-06-22T04:03:44;95784.47;;;20.51;100.00
3096;BME280;1558;42.700;23.360;2023-06-22T04:06:15;95776.63;;;20.50;100.00
3096;BME280;1558;42.700;23.360;2023-06-22T04:08:45;95768.66;;;20.31;100.00
3096;BME280;1558;42.700;23.360;2023-06-22T04:11:15;95778.03;;;20.26;100.00
3096;BME280;1558;42.700;23.360;2023-06-22T04:13:43;95762.34;;;20.23;100.00
3096;BME280;1558;42.700;23.360;2023-06-22T04:16:11;95767.94;;;20.41;100.00
3096;BME280;1558;42.700;23.360;2023-06-22T04:18:40;95769.63;;;20.59;100.00
3096;BME280;1558;42.700;23.360;2023-06-22T04:21:26;95756.34;;;20.68;98.11
3096;BME280;1558;42.700;23.360;2023-06-22T04:23:54;95748.34;;;20.35;98.80
3096;BME280;1558;42.700;23.360;2023-06-22T04:26:22;95749.56;;;20.45;98.51
3096;BME280;1558;42.700;23.360;2023-06-22T04:28:50;95724.47;;;20.32;98.00
3096;BME280;1558;42.700;23.360;2023-06-22T04:31:21;95740.25;;;20.60;97.84
3096;BME280;1558;42.700;23.360;2023-06-22T04:34:00;95745.41;;;20.75;98.06
3096;BME280;1558;42.700;23.360;2023-06-22T04:36:34;95742.28;;;20.73;98.68
3096;BME280;1558;42.700;23.360;2023-06-22T04:39:06;95718.84;;;20.86;97.28
3096;BME280;1558;42.700;23.360;2023-06-22T04:41:36;95742.91;;;21.32;96.28
3096;BME280;1558;42.700;23.360;2023-06-22T04:44:10;95748.00;;;21.37;96.22
3096;BME280;1558;42.700;23.360;2023-06-22T04:46:38;95749.56;;;21.38;95.60
3096;BME280;1558;42.700;23.360;2023-06-22T04:49:09;95704.84;;;21.44;93.63
3096;BME280;1558;42.700;23.360;2023-06-22T04:51:39;95753.13;;;21.52;94.64
3096;BME280;1558;42.700;23.360;2023-06-22T04:54:09;95760.97;;;21.68;93.98
3096;BME280;1558;42.700;23.360;2023-06-22T04:56:37;95769.28;;;21.96;93.06
3096;BME280;1558;42.700;23.360;2023-06-22T04:59:07;95772.41;;;22.12;91.41
3096;BME280;1558;42.700;23.360;2023-06-22T05:01:40;95755.53;;;22.10;90.36
3096;BME280;1558;42.700;23.360;2023-06-22T05:04:09;95761.75;;;22.46;89.80
3096;BME280;1558;42.700;23.360;2023-06-22T05:06:38;95765.66;;;22.52;87.97
3096;BME280;1558;42.700;23.360;2023-06-22T05:09:07;95764.41;;;22.85;86.28
3096;BME280;1558;42.700;23.360;2023-06-22T05:11:35;95752.59;;;22.88;84.37
3096;BME280;1558;42.700;23.360;2023-06-22T05:14:03;95752.22;;;22.86;83.23
3096;BME280;1558;42.700;23.360;2023-06-22T05:16:31;95761.13;;;23.18;82.56
3096;BME280;1558;42.700;23.360;2023-06-22T05:18:59;95758.28;;;23.39;81.40
3096;BME280;1558;42.700;23.360;2023-06-22T05:21:31;95764.47;;;23.58;81.36
3096;BME280;1558;42.700;23.360;2023-06-22T05:24:00;95773.94;;;24.11;79.80
3096;BME280;1558;42.700;23.360;2023-06-22T05:26:30;95776.94;;;24.68;78.34
3096;BME280;1558;42.700;23.360;2023-06-22T05:28:59;95763.75;;;24.86;75.03
3096;BME280;1558;42.700;23.360;2023-06-22T05:31:28;95768.66;;;24.68;75.60
3096;BME280;1558;42.700;23.360;2023-06-22T05:33:56;95771.66;;;24.84;74.79
3096;BME280;1558;42.700;23.360;2023-06-22T05:36:24;95781.25;;;25.10;75.40
3096;BME280;1558;42.700;23.360;2023-06-22T05:38:57;95739.09;;;25.33;73.04
3096;BME280;1558;42.700;23.360;2023-06-22T05:41:25;95791.78;;;25.79;71.16
3096;BME280;1558;42.700;23.360;2023-06-22T05:43:53;95796.56;;;26.29;70.21
3096;BME280;1558;42.700;23.360;2023-06-22T05:46:22;95802.44;;;26.31;69.25
3096;BME280;1558;42.700;23.360;2023-06-22T05:48:51;95798.47;;;26.55;69.52
3096;BME280;1558;42.700;23.360;2023-06-22T05:51:19;95791.06;;;26.71;68.18
3096;BME280;1558;42.700;23.360;2023-06-22T05:53:47;95776.25;;;26.81;67.56
3096;BME280;1558;42.700;23.360;2023-06-22T05:56:17;95782.88;;;26.88;65.04
3096;BME280;1558;42.700;23.360;2023-06-22T05:58:46;95789.47;;;27.13;65.02
3096;BME280;1558;42.700;23.360;2023-06-22T06:01:14;95761.97;;;27.22;64.57
3096;BME280;1558;42.700;23.360;2023-06-22T06:03:42;95781.06;;;27.56;62.69
3096;BME280;1558;42.700;23.360;2023-06-22T06:06:11;95789.88;;;27.71;62.33
3096;BME280;1558;42.700;23.360;2023-06-22T06:08:41;95785.00;;;28.10;60.92
3096;BME280;1558;42.700;23.360;2023-06-22T06:11:09;95780.94;;;28.15;61.13
3096;BME280;1558;42.700;23.360;2023-06-22T06:13:39;95785.28;;;28.64;59.63
3096;BME280;1558;42.700;23.360;2023-06-22T06:16:07;95770.50;;;28.51;58.01
3096;BME280;1558;42.700;23.360;2023-06-22T06:18:35;95759.38;;;28.67;58.01
3096;BME280;1558;42.700;23.360;2023-06-22T06:21:04;95755.16;;;28.92;56.88
3096;BME280;1558;42.700;23.360;2023-06-22T06:23:32;95783.00;;;29.33;56.75
3096;BME280;1558;42.700;23.360;2023-06-22T06:26:00;95771.56;;;29.31;55.99
3096;BME280;1558;42.700;23.360;2023-06-22T06:28:28;95778.03;;;29.53;56.03
3096;BME280;1558;42.700;23.360;2023-06-22T06:30:58;95775.16;;;29.69;55.32
3096;BME280;1558;42.700;23.360;2023-06-22T06:33:26;95772.88;;;29.39;55.48
3096;BME280;1558;42.700;23.360;2023-06-22T06:35:54;95780.25;;;29.58;56.02
3096;BME280;1558;42.700;23.360;2023-06-22T06:38:22;95777.66;;;29.92;55.40
3096;BME280;1558;42.700;23.360;2023-06-22T06:40:51;95771.84;;;30.25;53.37
3096;BME280;1558;42.700;23.360;2023-06-22T06:43:19;95761.50;;;30.12;54.18
3096;BME280;1558;42.700;23.360;2023-06-22T06:45:47;95767.41;;;29.89;52.98
3096;BME280;1558;42.700;23.360;2023-06-22T06:48:19;95764.66;;;29.35;53.99
3096;BME280;1558;42.700;23.360;2023-06-22T06:50:48;95756.91;;;29.14;54.10
3096;BME280;1558;42.700;23.360;2023-06-22T06:53:16;95755.41;;;28.52;54.86
3096;BME280;1558;42.700;23.360;2023-06-22T06:55:44;95753.19;;;28.15;56.24
3096;BME280;1558;42.700;23.360;2023-06-22T06:58:13;95754.81;;;28.12;57.08
3096;BME280;1558;42.700;23.360;2023-06-22T07:00:41;95756.47;;;28.42;57.36
3096;BME280;1558;42.700;23.360;2023-06-22T07:03:10;95756.53;;;28.39;57.29
3096;BME280;1558;42.700;23.360;2023-06-22T07:05:39;95750.84;;;27.45;59.09
3096;BME280;1558;42.700;23.360;2023-06-22T07:08:07;95752.66;;;27.32;60.40
3096;BME280;1558;42.700;23.360;2023-06-22T07:10:36;95759.00;;;28.04;59.20
3096;BME280;1558;42.700;23.360;2023-06-22T07:13:04;95754.03;;;28.60;58.17
3096;BME280;1558;42.700;23.360;2023-06-22T07:15:32;95765.34;;;29.65;55.63
3096;BME280;1558;42.700;23.360;2023-06-22T07:18:00;95759.38;;;30.17;54.23
3096;BME280;1558;42.700;23.360;2023-06-22T07:20:28;95760.69;;;30.50;53.37
3096;BME280;1558;42.700;23.360;2023-06-22T07:22:59;95757.97;;;30.59;52.19
3096;BME280;1558;42.700;23.360;2023-06-22T07:25:27;95746.00;;;31.05;51.20
3096;BME280;1558;42.700;23.360;2023-06-22T07:27:59;95741.31;;;31.45;50.84
3096;BME280;1558;42.700;23.360;2023-06-22T07:30:28;95751.78;;;31.85;49.10
3096;BME280;1558;42.700;23.360;2023-06-22T07:32:57;95753.81;;;31.93;48.90
3096;BME280;1558;42.700;23.360;2023-06-22T07:35:30;95744.19;;;31.85;48.95
3096;BME280;1558;42.700;23.360;2023-06-22T07:37:59;95756.88;;;32.17;47.88
3096;BME280;1558;42.700;23.360;2023-06-22T07:40:31;95768.72;;;32.39;48.14
3096;BME280;1558;42.700;23.360;2023-06-22T07:43:00;95753.59;;;32.76;48.62
3096;BME280;1558;42.700;23.360;2023-06-22T07:45:28;95753.72;;;33.46;47.41
3096;BME280;1558;42.700;23.360;2023-06-22T07:47:57;95757.28;;;33.73;47.12
3096;BME280;1558;42.700;23.360;2023-06-22T07:50:25;95761.97;;;34.42;45.10
3096;BME280;1558;42.700;23.360;2023-06-22T07:52:54;95753.13;;;34.01;45.33
3096;BME280;1558;42.700;23.360;2023-06-22T07:55:23;95726.88;;;33.30;45.36
3096;BME280;1558;42.700;23.360;2023-06-22T07:57:51;95739.00;;;32.82;46.74
3096;BME280;1558;42.700;23.360;2023-06-22T08:00:20;95747.06;;;32.61;47.14
3096;BME280;1558;42.700;23.360;2023-06-22T08:02:48;95727.69;;;32.09;48.14
3096;BME280;1558;42.700;23.360;2023-06-22T08:05:16;95737.31;;;31.47;49.13
3096;BME280;1558;42.700;23.360;2023-06-22T08:07:59;95737.03;;;31.84;50.29
3096;BME280;1558;42.700;23.360;2023-06-22T08:10:29;95734.47;;;32.57;49.89
3096;BME280;1558;42.700;23.360;2023-06-22T08:12:57;95732.78;;;33.05;47.90
3096;BME280;1558;42.700;23.360;2023-06-22T08:15:26;95731.66;;;33.57;46.11
3096;BME280;1558;42.700;23.360;2023-06-22T08:17:55;95720.66;;;32.62;47.71
3096;BME280;1558;42.700;23.360;2023-06-22T08:20:24;95725.50;;;32.71;48.53
3096;BME280;1558;42.700;23.360;2023-06-22T08:22:53;95731.84;;;32.99;48.69
3096;BME280;1558;42.700;23.360;2023-06-22T08:25:21;95712.47;;;33.04;47.63
3096;BME280;1558;42.700;23.360;2023-06-22T08:27:51;95716.50;;;33.72;47.04
3096;BME280;1558;42.700;23.360;2023-06-22T08:30:19;95719.75;;;34.69;44.56
3096;BME280;1558;42.700;23.360;2023-06-22T08:32:47;95711.75;;;33.55;44.65
3096;BME280;1558;42.700;23.360;2023-06-22T08:35:15;95704.47;;;32.30;47.73
3096;BME280;1558;42.700;23.360;2023-06-22T08:37:43;95721.25;;;31.60;49.17
3096;BME280;1558;42.700;23.360;2023-06-22T08:40:19;95721.75;;;31.98;49.45
3096;BME280;1558;42.700;23.360;2023-06-22T08:42:48;95716.53;;;32.09;50.18
3096;BME280;1558;42.700;23.360;2023-06-22T08:45:17;95722.81;;;32.49;49.46
3096;BME280;1558;42.700;23.360;2023-06-22T08:47:45;95707.69;;;32.29;49.68
3096;BME280;1558;42.700;23.360;2023-06-22T08:50:14;95712.56;;;33.37;48.12
3096;BME280;1558;42.700;23.360;2023-06-22T08:52:42;95718.59;;;34.28;47.31
3096;BME280;1558;42.700;23.360;2023-06-22T08:55:10;95717.03;;;34.98;44.85
3096;BME280;1558;42.700;23.360;2023-06-22T08:57:38;95713.91;;;35.34;43.55
3096;BME280;1558;42.700;23.360;2023-06-22T09:00:08;95701.78;;;35.14;44.53
3096;BME280;1558;42.700;23.360;2023-06-22T09:02:46;95702.47;;;34.47;43.44
3096;BME280;1558;42.700;23.360;2023-06-22T09:05:15;95695.41;;;35.13;42.79
3096;BME280;1558;42.700;23.360;2023-06-22T09:07:44;95699.03;;;34.66;43.38
3096;BME280;1558;42.700;23.360;2023-06-22T09:10:13;95699.97;;;35.11;43.24
3096;BME280;1558;42.700;23.360;2023-06-22T09:12:44;95693.81;;;36.00;42.94
3096;BME280;1558;42.700;23.360;2023-06-22T09:15:12;95702.38;;;36.60;39.91
3096;BME280;1558;42.700;23.360;2023-06-22T09:17:45;95693.69;;;36.64;40.03
3096;BME280;1558;42.700;23.360;2023-06-22T09:20:14;95696.44;;;36.04;38.29
3096;BME280;1558;42.700;23.360;2023-06-22T09:22:43;95658.50;;;35.50;40.56
3096;BME280;1558;42.700;23.360;2023-06-22T09:25:11;95698.06;;;35.95;41.35
3096;BME280;1558;42.700;23.360;2023-06-22T09:27:39;95696.69;;;35.56;41.52
3096;BME280;1558;42.700;23.360;2023-06-22T09:30:08;95700.00;;;36.04;41.29
3096;BME280;1558;42.700;23.360;2023-06-22T09:32:36;95702.91;;;36.64;40.20
3096;BME280;1558;42.700;23.360;2023-06-22T09:35:07;95703.72;;;36.30;38.88
3096;BME280;1558;42.700;23.360;2023-06-22T09:37:36;95689.25;;;35.00;39.56
3096;BME280;1558;42.700;23.360;2023-06-22T09:40:06;95708.47;;;35.46;39.34
3096;BME280;1558;42.700;23.360;2023-06-22T09:42:37;95699.38;;;35.36;40.35
3096;BME280;1558;42.700;23.360;2023-06-22T09:45:06;95702.22;;;35.51;38.70
3096;BME280;1558;42.700;23.360;2023-06-22T09:47:35;95697.41;;;36.00;38.33
3096;BME280;1558;42.700;23.360;2023-06-22T09:50:06;95683.34;;;36.76;37.27
3096;BME280;1558;42.700;23.360;2023-06-22T09:52:35;95694.25;;;37.08;36.95
3096;BME280;1558;42.700;23.360;2023-06-22T09:55:06;95691.38;;;37.03;35.37
3096;BME280;1558;42.700;23.360;2023-06-22T09:57:35;95685.97;;;36.59;36.03
3096;BME280;1558;42.700;23.360;2023-06-22T10:00:04;95688.28;;;37.01;35.92
3096;BME280;1558;42.700;23.360;2023-06-22T10:02:35;95683.88;;;36.94;35.98
3096;BME280;1558;42.700;23.360;2023-06-22T10:05:05;95683.09;;;36.94;35.36
3096;BME280;1558;42.700;23.360;2023-06-22T10:07:34;95675.03;;;37.32;35.13
3096;BME280;1558;42.700;23.360;2023-06-22T10:10:07;95656.34;;;36.63;35.66
3096;BME280;1558;42.700;23.360;2023-06-22T10:12:35;95661.13;;;36.98;34.78
3096;BME280;1558;42.700;23.360;2023-06-22T10:15:04;95678.13;;;37.35;34.19
3096;BME280;1558;42.700;23.360;2023-06-22T10:17:33;95642.22;;;37.55;33.91
3096;BME280;1558;42.700;23.360;2023-06-22T10:20:01;95669.09;;;37.25;33.90
3096;BME280;1558;42.700;23.360;2023-06-22T10:22:41;95629.63;;;36.94;34.70
3096;BME280;1558;42.700;23.360;2023-06-22T10:25:12;95667.47;;;36.93;33.85
3096;BME280;1558;42.700;23.360;2023-06-22T10:27:40;95671.66;;;36.83;33.84
3096;BME280;1558;42.700;23.360;2023-06-22T10:30:10;95667.34;;;36.61;34.03
3096;BME280;1558;42.700;23.360;2023-06-22T10:32:40;95659.41;;;36.05;35.04
3096;BME280;1558;42.700;23.360;2023-06-22T10:35:09;95663.56;;;35.75;35.68
3096;BME280;1558;42.700;23.360;2023-06-22T10:37:42;95656.84;;;35.87;36.00
3096;BME280;1558;42.700;23.360;2023-06-22T10:40:12;95645.88;;;36.84;35.11
3096;BME280;1558;42.700;23.360;2023-06-22T10:42:42;95648.66;;;37.04;34.19
3096;BME280;1558;42.700;23.360;2023-06-22T10:45:10;95637.63;;;37.01;34.63
3096;BME280;1558;42.700;23.360;2023-06-22T10:47:39;95652.44;;;35.66;34.61
3096;BME280;1558;42.700;23.360;2023-06-22T10:50:09;95615.31;;;35.76;35.84
3096;BME280;1558;42.700;23.360;2023-06-22T10:52:38;95649.94;;;36.43;34.19
3096;BME280;1558;42.700;23.360;2023-06-22T10:55:08;95644.97;;;35.97;34.59
3096;BME280;1558;42.700;23.360;2023-06-22T10:57:36;95603.56;;;36.13;35.33
3096;BME280;1558;42.700;23.360;2023-06-22T11:00:06;95643.03;;;37.04;34.26
3096;BME280;1558;42.700;23.360;2023-06-22T11:02:38;95643.00;;;37.30;33.86
3096;BME280;1558;42.700;23.360;2023-06-22T11:05:07;95634.03;;;37.88;33.40
3096;BME280;1558;42.700;23.360;2023-06-22T11:07:35;95647.63;;;37.33;33.12
3096;BME280;1558;42.700;23.360;2023-06-22T11:10:10;95637.63;;;37.01;33.89
3096;BME280;1558;42.700;23.360;2023-06-22T11:12:38;95640.28;;;36.90;34.79
3096;BME280;1558;42.700;23.360;2023-06-22T11:15:07;95632.44;;;36.94;34.24
3096;BME280;1558;42.700;23.360;2023-06-22T11:17:36;95637.06;;;36.97;33.54
3096;BME280;1558;42.700;23.360;2023-06-22T11:20:05;95623.44;;;37.41;33.90
3096;BME280;1558;42.700;23.360;2023-06-22T11:22:38;95631.00;;;37.29;33.17
3096;BME280;1558;42.700;23.360;2023-06-22T11:25:08;95623.56;;;37.01;34.43
3096;BME280;1558;42.700;23.360;2023-06-22T11:27:38;95625.75;;;36.71;34.79
3096;BME280;1558;42.700;23.360;2023-06-22T11:30:08;95621.00;;;37.03;33.98
3096;BME280;1558;42.700;23.360;2023-06-22T11:32:36;95597.72;;;36.56;34.00
3096;BME280;1558;42.700;23.360;2023-06-22T11:35:05;95618.28;;;37.14;34.19
3096;BME280;1558;42.700;23.360;2023-06-22T11:37:33;95614.47;;;36.45;34.58
3096;BME280;1558;42.700;23.360;2023-06-22T11:40:02;95615.94;;;35.36;36.15
3096;BME280;1558;42.700;23.360;2023-06-22T11:42:35;95621.63;;;34.98;36.38
3096;BME280;1558;42.700;23.360;2023-06-22T11:45:07;95625.94;;;35.87;35.55
3096;BME280;1558;42.700;23.360;2023-06-22T11:47:35;95614.75;;;36.67;34.75
3096;BME280;1558;42.700;23.360;2023-06-22T11:50:05;95609.59;;;35.71;35.17
3096;BME280;1558;42.700;23.360;2023-06-22T11:52:34;95596.44;;;35.97;34.68
3096;BME280;1558;42.700;23.360;2023-06-22T11:55:05;95595.34;;;36.29;33.66
3096;BME280;1558;42.700;23.360;2023-06-22T11:57:36;95591.91;;;35.65;34.33
3096;BME280;1558;42.700;23.360;2023-06-22T12:00:05;95606.88;;;35.12;35.07
3096;BME280;1558;42.700;23.360;2023-06-22T12:02:44;95605.91;;;35.15;35.59
3096;BME280;1558;42.700;23.360;2023-06-22T12:05:13;95600.88;;;35.19;35.60
3096;BME280;1558;42.700;23.360;2023-06-22T12:07:41;95592.72;;;35.07;38.11
3096;BME280;1558;42.700;23.360;2023-06-22T12:10:10;95594.84;;;34.97;36.32
3096;BME280;1558;42.700;23.360;2023-06-22T12:12:39;95599.16;;;34.54;38.20
3096;BME280;1558;42.700;23.360;2023-06-22T12:15:09;95606.47;;;34.14;38.66
3096;BME280;1558;42.700;23.360;2023-06-22T12:17:37;95616.09;;;33.14;38.53
3096;BME280;1558;42.700;23.360;2023-06-22T12:20:06;95615.38;;;32.23;41.74
3096;BME280;1558;42.700;23.360;2023-06-22T12:22:35;95618.66;;;31.64;45.10
3096;BME280;1558;42.700;23.360;2023-06-22T12:25:05;95628.31;;;31.10;46.90
3096;BME280;1558;42.700;23.360;2023-06-22T12:27:33;95523.22;;;30.37;47.32
3096;BME280;1558;42.700;23.360;2023-06-22T12:30:04;95635.22;;;30.97;48.03
3096;BME280;1558;42.700;23.360;2023-06-22T12:32:32;95639.94;;;30.87;48.70
3096;BME280;1558;42.700;23.360;2023-06-22T12:35:00;95652.13;;;30.59;50.07
3096;BME280;1558;42.700;23.360;2023-06-22T12:37:28;95648.06;;;29.91;51.63
3096;BME280;1558;42.700;23.360;2023-06-22T12:39:58;95658.63;;;29.08;56.54
3096;BME280;1558;42.700;23.360;2023-06-22T12:42:26;95651.31;;;28.73;59.31
3096;BME280;1558;42.700;23.360;2023-06-22T12:44:54;95635.88;;;28.14;61.67
3096;BME280;1558;42.700;23.360;2023-06-22T12:47:24;95646.19;;;27.98;62.27
3096;BME280;1558;42.700;23.360;2023-06-22T12:49:52;95650.50;;;28.31;63.32
3096;BME280;1558;42.700;23.360;2023-06-22T12:52:20;95657.63;;;28.61;62.92
3096;BME280;1558;42.700;23.360;2023-06-22T12:54:48;95657.00;;;28.53;61.91
3096;BME280;1558;42.700;23.360;2023-06-22T12:57:21;95682.72;;;28.41;62.05
3096;BME280;1558;42.700;23.360;2023-06-22T12:59:50;95676.66;;;28.30;63.86
3096;BME280;1558;42.700;23.360;2023-06-22T13:02:18;95680.06;;;28.50;64.69
3096;BME280;1558;42.700;23.360;2023-06-22T13:04:47;95678.31;;;28.28;62.52
3096;BME280;1558;42.700;23.360;2023-06-22T13:07:15;95695.22;;;28.33;63.72
3096;BME280;1558;42.700;23.360;2023-06-22T13:09:49;95679.47;;;28.14;63.62
3096;BME280;1558;42.700;23.360;2023-06-22T13:12:19;95648.78;;;28.21;64.44
3096;BME280;1558;42.700;23.360;2023-06-22T13:14:48;95654.38;;;28.62;63.77
3096;BME280;1558;42.700;23.360;2023-06-22T13:17:16;95667.19;;;28.72;64.99
3096;BME280;1558;42.700;23.360;2023-06-22T13:19:44;95677.38;;;28.63;64.10
3096;BME280;1558;42.700;23.360;2023-06-22T13:22:28;95692.56;;;28.58;64.95